Time;durP1;ratioP1;P1;durP2;ratioP2;P2;SDS_P1;SDS_P2;PMS_P1;PMS_P2;Temp;Humidity;BMP_temperature;BMP_pressure;BME280_temperature;BME280_humidity;BME280_pressure;Samples;Min_cycle;Max_cycle;Signal;HPM_P1;HPM_P2
2022/08/12 00:42:54;;;;;;;4.43;3.03;;;25.80;48.30;;;;;;5020903;28;87106;-84
2022/08/12 00:45:20;;;;;;;6.35;2.90;;;25.80;48.30;;;;;;5021687;28;87096;-83
2022/08/12 00:47:45;;;;;;;5.43;2.80;;;25.80;48.30;;;;;;5022123;28;87076;-83
2022/08/12 00:50:18;;;;;;;4.55;3.25;;;25.80;48.40;;;;;;5020231;28;87762;-84
2022/08/12 00:52:49;;;;;;;4.75;2.97;;;25.80;48.40;;;;;;5021349;28;88225;-82
2022/08/12 00:55:17;;;;;;;3.78;3.00;;;25.80;49.00;;;;;;5021315;28;86950;-84
2022/08/12 00:57:46;;;;;;;4.68;3.17;;;25.80;48.50;;;;;;5021912;28;87333;-83
2022/08/12 01:00:14;;;;;;;;;;;25.80;48.50;;;;;;5020073;28;91789;-83
2022/08/12 01:02:45;;;;;;;4.05;2.72;;;25.80;48.40;;;;;;5022691;28;88942;-83
2022/08/12 01:13:33;;;;;;;5.90;2.92;;;25.80;48.50;;;;;;5022106;28;86852;-83
2022/08/12 01:16:05;;;;;;;5.32;3.10;;;25.80;48.40;;;;;;5021345;28;87243;-83
2022/08/12 01:18:37;;;;;;;4.70;3.28;;;25.80;48.30;;;;;;5021299;28;86183;-83
2022/08/12 01:21:18;;;;;;;4.05;2.67;;;25.70;48.40;;;;;;5021209;28;88515;-83
2022/08/12 01:24:05;;;;;;;4.97;3.15;;;25.70;48.40;;;;;;5020722;28;88035;-83
2022/08/12 01:26:31;;;;;;;6.30;3.10;;;25.70;48.50;;;;;;5018420;28;88012;-83
2022/08/12 01:28:58;;;;;;;4.82;2.95;;;25.70;48.50;;;;;;5020549;28;87501;-83
2022/08/12 01:31:25;;;;;;;3.83;2.85;;;25.70;48.50;;;;;;5021089;28;88445;-84
2022/08/12 01:34:05;;;;;;;4.90;2.70;;;25.70;48.30;;;;;;5020987;28;87153;-83
2022/08/12 01:36:45;;;;;;;4.72;3.03;;;25.70;48.40;;;;;;5020694;28;87400;-84
2022/08/12 01:39:14;;;;;;;6.40;3.75;;;25.80;48.50;;;;;;5020732;28;86911;-83
2022/08/12 01:41:46;;;;;;;4.18;3.20;;;25.70;48.50;;;;;;5020594;28;88687;-83
2022/08/12 01:44:13;;;;;;;3.88;2.78;;;25.70;48.40;;;;;;5020594;28;86801;-83
2022/08/12 01:47:02;;;;;;;3.30;2.70;;;25.70;48.60;;;;;;5021424;28;86841;-83
2022/08/12 01:49:47;;;;;;;4.38;3.00;;;25.70;48.70;;;;;;5020382;28;88744;-83
2022/08/12 01:52:38;;;;;;;4.70;2.80;;;25.70;48.50;;;;;;5020890;28;88551;-83
2022/08/12 01:55:05;;;;;;;4.75;3.05;;;25.70;48.60;;;;;;5021400;28;89006;-84
2022/08/12 01:57:40;;;;;;;3.97;2.90;;;25.70;48.60;;;;;;5021493;28;87191;-83
2022/08/12 02:00:12;;;;;;;5.18;2.88;;;25.70;48.60;;;;;;5020662;28;87325;-82
2022/08/12 02:03:00;;;;;;;5.85;3.00;;;25.70;48.60;;;;;;5019705;28;87809;-84
2022/08/12 02:11:44;;;;;;;6.05;3.10;;;25.70;48.70;;;;;;5020089;28;86520;-83
2022/08/12 02:14:50;;;;;;;5.03;3.03;;;25.70;48.70;;;;;;5019167;28;90389;-82
2022/08/12 02:17:30;;;;;;;3.90;3.13;;;25.70;48.80;;;;;;5020477;28;88644;-83
2022/08/12 02:20:16;;;;;;;4.00;2.72;;;25.70;48.90;;;;;;5019511;28;88533;-83
2022/08/12 02:22:44;;;;;;;4.30;2.78;;;25.70;48.90;;;;;;5018432;28;90957;-82
2022/08/12 02:25:17;;;;;;;4.45;3.03;;;25.70;49.00;;;;;;5019346;28;88682;-84
2022/08/12 02:27:46;;;;;;;6.22;3.28;;;25.60;48.90;;;;;;5020230;28;87384;-83
2022/08/12 02:30:15;;;;;;;3.20;2.90;;;25.60;48.90;;;;;;5019591;28;87460;-82
2022/08/12 02:32:43;;;;;;;3.10;2.65;;;25.70;49.10;;;;;;5019100;28;87059;-83
2022/08/12 02:35:13;;;;;;;4.07;2.88;;;25.60;49.00;;;;;;5019126;28;87950;-82
2022/08/12 02:37:40;;;;;;;4.50;3.05;;;25.60;48.90;;;;;;5019790;28;88233;-83
2022/08/12 02:40:07;;;;;;;5.03;3.03;;;25.60;49.00;;;;;;5019499;28;86994;-83
2022/08/12 02:42:34;;;;;;;3.97;2.80;;;25.60;48.90;;;;;;5019421;28;91800;-83
2022/08/12 02:45:05;;;;;;;4.10;2.60;;;25.70;49.70;;;;;;5017687;28;91241;-83
2022/08/12 02:47:33;;;;;;;3.75;3.10;;;25.70;48.90;;;;;;5017891;28;89192;-83
2022/08/12 02:50:02;;;;;;;4.55;2.92;;;25.60;49.10;;;;;;5019245;28;87383;-83
2022/08/12 02:52:28;;;;;;;4.00;3.00;;;25.60;49.60;;;;;;5033219;28;90799;-83
2022/08/12 02:55:02;;;;;;;4.20;2.83;;;25.60;49.10;;;;;;5017932;28;90940;-84
2022/08/12 02:57:30;;;;;;;3.22;2.70;;;25.60;49.10;;;;;;5019756;28;88249;-82
2022/08/12 02:59:56;;;;;;;3.10;2.75;;;25.60;49.10;;;;;;5019742;28;87265;-83
2022/08/12 03:02:27;;;;;;;3.25;2.72;;;25.60;49.20;;;;;;5019630;28;87159;-83
2022/08/12 03:04:55;;;;;;;4.38;2.70;;;25.60;49.10;;;;;;5019051;28;88177;-83
2022/08/12 03:07:25;;;;;;;4.53;3.13;;;25.60;49.20;;;;;;5034644;28;89456;-84
2022/08/12 03:10:10;;;;;;;3.53;2.50;;;25.60;49.30;;;;;;5018948;28;88521;-83
2022/08/12 03:12:38;;;;;;;3.90;2.83;;;25.60;49.30;;;;;;5018307;28;90836;-83
2022/08/12 03:15:08;;;;;;;4.47;2.72;;;25.60;49.20;;;;;;5018741;28;91649;-83
2022/08/12 03:17:42;;;;;;;4.03;2.58;;;25.60;49.30;;;;;;5018428;28;89935;-83
2022/08/12 03:20:14;;;;;;;3.83;2.85;;;25.60;49.80;;;;;;5019458;28;87273;-83
2022/08/12 03:22:42;;;;;;;3.05;2.75;;;25.60;49.30;;;;;;5018533;28;87388;-83
2022/08/12 03:25:26;;;;;;;4.40;2.90;;;25.60;49.50;;;;;;5019880;28;88024;-83
2022/08/12 03:27:55;;;;;;;3.70;2.85;;;25.60;49.40;;;;;;5020241;28;87273;-84
2022/08/12 03:30:27;;;;;;;3.42;2.60;;;25.60;49.30;;;;;;5019692;28;87627;-83
2022/08/12 03:32:56;;;;;;;3.78;2.72;;;25.60;49.50;;;;;;5018939;28;87000;-83
2022/08/12 03:35:29;;;;;;;3.50;2.70;;;25.60;49.60;;;;;;5017240;28;92304;-83
2022/08/12 03:38:07;;;;;;;4.05;2.83;;;25.60;49.40;;;;;;5019650;28;88730;-83
2022/08/12 04:00:24;;;;;;;3.83;2.72;;;25.50;49.60;;;;;;5018280;28;86974;-83
2022/08/12 04:03:00;;;;;;;3.22;2.47;;;25.60;49.60;;;;;;5017966;28;88264;-84
2022/08/12 04:05:30;;;;;;;3.97;2.70;;;25.50;49.60;;;;;;5018441;28;89099;-82
2022/08/12 04:07:58;;;;;;;3.95;3.00;;;25.50;49.60;;;;;;5017293;28;90002;-83
2022/08/12 04:13:14;;;;;;;3.53;2.70;;;25.50;49.60;;;;;;5017240;28;88248;-83
2022/08/12 04:13:20;;;;;;;3.67;2.88;;;25.50;49.60;;;;;;5018311;28;87068;-83
2022/08/12 04:15:46;;;;;;;4.05;2.90;;;25.50;49.60;;;;;;5017600;28;87444;-83
2022/08/12 04:18:14;;;;;;;3.63;2.75;;;25.50;49.60;;;;;;5017592;28;88730;-83
2022/08/12 04:20:47;;;;;;;4.03;2.88;;;25.60;49.70;;;;;;5017962;28;87687;-83
2022/08/12 04:23:14;;;;;;;3.25;2.60;;;25.50;49.60;;;;;;5018087;28;87021;-82
2022/08/12 04:25:40;;;;;;;4.18;2.55;;;25.50;49.70;;;;;;5019911;28;86884;-83
2022/08/12 04:28:10;;;;;;;3.25;2.83;;;25.50;49.60;;;;;;5014402;28;88890;-82
2022/08/12 04:30:38;;;;;;;5.20;3.10;;;25.60;49.20;;;;;;5014403;28;88995;-83
2022/08/12 04:33:08;;;;;;;4.25;3.60;;;25.50;48.40;;;;;;5016994;28;87580;-84
2022/08/12 04:35:34;;;;;;;6.43;3.75;;;25.40;47.10;;;;;;5016531;28;87292;-86
2022/08/12 04:38:00;;;;;;;8.57;4.10;;;25.40;46.60;;;;;;5017652;28;88704;-85
2022/08/12 04:40:29;;;;;;;6.78;4.38;;;25.30;46.10;;;;;;5018269;28;87792;-85
2022/08/12 04:42:55;;;;;;;6.80;4.00;;;25.20;45.90;;;;;;5034635;27;87405;-85
2022/08/12 04:45:23;;;;;;;7.25;4.55;;;25.10;45.50;;;;;;5022390;28;87082;-86
2022/08/12 04:47:49;;;;;;;6.82;4.80;;;25.00;45.40;;;;;;5020438;28;91474;-84
2022/08/12 04:50:17;;;;;;;8.45;4.65;;;25.00;45.40;;;;;;5021809;28;88994;-85
2022/08/12 04:52:43;;;;;;;6.05;4.07;;;25.00;45.40;;;;;;5022225;28;88411;-86
2022/08/12 04:55:09;;;;;;;6.07;4.28;;;24.90;45.50;;;;;;5020084;28;89718;-86
2022/08/12 04:57:35;;;;;;;11.85;4.75;;;24.90;45.40;;;;;;5022606;28;88674;-85
2022/08/12 05:00:07;;;;;;;5.70;4.45;;;24.90;45.30;;;;;;5021995;28;88187;-84
2022/08/12 05:02:32;;;;;;;5.68;4.10;;;24.90;45.40;;;;;;5022146;28;86935;-83
2022/08/12 05:05:00;;;;;;;6.97;4.10;;;24.80;45.50;;;;;;5021603;28;87286;-84
2022/08/12 05:07:26;;;;;;;10.90;4.88;;;24.80;45.30;;;;;;5021449;28;88248;-84
2022/08/12 05:09:52;;;;;;;7.45;4.22;;;24.80;45.60;;;;;;5019217;28;91274;-84
2022/08/12 05:12:18;;;;;;;8.13;4.10;;;24.80;45.50;;;;;;5021318;28;87193;-84
2022/08/12 05:14:44;;;;;;;6.18;4.20;;;24.80;45.70;;;;;;5020526;28;87309;-84
2022/08/12 05:17:10;;;;;;;8.13;4.00;;;24.80;45.70;;;;;;5020280;28;89029;-83
2022/08/12 05:19:35;;;;;;;6.80;4.28;;;24.80;45.70;;;;;;5020392;28;88691;-84
2022/08/12 05:22:01;;;;;;;6.03;4.50;;;24.90;45.80;;;;;;5020344;28;87303;-84
2022/08/12 05:24:27;;;;;;;7.30;4.60;;;24.80;45.90;;;;;;5020939;28;87494;-84
2022/08/12 05:26:53;;;;;;;7.40;4.47;;;24.70;45.90;;;;;;5019646;28;88187;-84
2022/08/12 05:29:19;;;;;;;7.75;4.55;;;24.60;46.10;;;;;;5020306;28;87449;-84
2022/08/12 05:31:44;;;;;;;12.02;4.45;;;24.70;46.40;;;;;;5020036;28;87365;-84
2022/08/12 05:34:13;;;;;;;23.80;5.60;;;24.60;46.40;;;;;;5020622;28;87857;-84
2022/08/12 05:36:40;;;;;;;17.65;5.40;;;24.60;46.50;;;;;;5020394;28;88481;-84
2022/08/12 05:39:05;;;;;;;23.85;5.82;;;24.60;46.80;;;;;;5018940;28;87597;-83
2022/08/12 05:41:34;;;;;;;21.77;5.63;;;24.60;46.70;;;;;;5019417;28;87844;-84
2022/08/12 05:44:08;;;;;;;18.53;4.90;;;24.50;46.70;;;;;;5019562;28;87176;-84
2022/08/12 05:46:35;;;;;;;16.27;5.38;;;24.60;46.90;;;;;;5020489;28;88628;-85
2022/08/12 05:49:01;;;;;;;13.43;5.40;;;24.60;47.20;;;;;;5019970;28;90555;-84
2022/08/12 05:51:30;;;;;;;15.80;4.93;;;24.60;47.30;;;;;;5018905;28;87391;-84
2022/08/12 05:53:57;;;;;;;8.93;5.10;;;24.60;47.70;;;;;;5019115;28;86893;-83
2022/08/12 05:56:28;;;;;;;10.75;5.47;;;24.60;47.70;;;;;;5019412;28;87786;-84
2022/08/12 05:58:55;;;;;;;14.98;5.55;;;24.60;47.80;;;;;;5019373;28;87963;-85
2022/08/12 06:01:22;;;;;;;11.85;5.20;;;24.60;47.30;;;;;;5019687;28;87426;-84
2022/08/12 06:03:49;;;;;;;11.02;5.20;;;24.60;46.60;;;;;;5019851;28;87808;-84
2022/08/12 06:06:16;;;;;;;10.93;5.07;;;24.60;46.60;;;;;;5019003;28;88164;-84
2022/08/12 06:08:45;;;;;;;10.27;4.63;;;24.70;46.20;;;;;;5019013;28;87772;-85
2022/08/12 06:11:11;;;;;;;12.52;4.90;;;24.70;46.40;;;;;;5019183;28;87335;-84
2022/08/12 06:13:38;;;;;;;12.70;4.50;;;24.70;46.00;;;;;;5018763;28;87107;-84
2022/08/12 06:16:08;;;;;;;11.38;4.30;;;24.70;45.90;;;;;;5019524;28;89541;-84
2022/08/12 06:18:38;;;;;;;12.85;4.30;;;24.70;45.90;;;;;;5019192;28;87824;-83
2022/08/12 06:21:08;;;;;;;19.00;6.03;;;24.70;45.40;;;;;;5033110;28;88288;-83
2022/08/12 06:23:34;;;;;;;104.47;20.77;;;24.80;45.10;;;;;;5017967;28;88762;-84
2022/08/12 06:26:00;;;;;;;72.50;16.20;;;24.80;46.00;;;;;;5033390;28;91530;-83
2022/08/12 06:28:29;;;;;;;47.70;10.20;;;24.80;45.40;;;;;;5018604;28;87374;-85
2022/08/12 06:30:55;;;;;;;31.63;8.38;;;24.90;45.50;;;;;;5018064;28;88462;-85
2022/08/12 06:33:21;;;;;;;29.15;7.63;;;25.00;45.70;;;;;;5019867;28;87339;-83
2022/08/12 06:35:48;;;;;;;23.75;6.57;;;25.10;45.60;;;;;;5018611;28;86996;-84
2022/08/12 06:38:15;;;;;;;21.65;6.65;;;25.10;45.60;;;;;;5018024;28;89480;-84
2022/08/12 06:43:29;;;;;;;26.08;5.22;;;25.10;44.80;;;;;;5018979;28;87475;-84
2022/08/12 06:45:59;;;;;;;13.30;5.05;;;25.10;44.80;;;;;;5019608;28;88567;-84
2022/08/12 06:48:26;;;;;;;18.35;5.30;;;25.20;44.80;;;;;;5018719;28;86997;-83
2022/08/12 06:50:53;;;;;;;19.77;4.07;;;25.20;44.30;;;;;;5019282;28;87032;-83
2022/08/12 06:53:19;;;;;;;15.75;4.28;;;25.20;44.00;;;;;;5018897;28;87890;-83
2022/08/12 06:55:44;;;;;;;13.10;4.30;;;25.30;43.70;;;;;;5017293;28;88456;-83
2022/08/12 06:58:10;;;;;;;10.93;4.40;;;25.20;43.30;;;;;;5017191;28;88818;-83
2022/08/12 07:00:36;;;;;;;7.05;3.75;;;25.30;43.60;;;;;;5019335;28;87616;-83
2022/08/12 07:03:03;;;;;;;7.43;3.38;;;25.30;43.50;;;;;;5017076;28;87585;-83
2022/08/12 07:05:29;;;;;;;11.25;3.72;;;25.40;43.20;;;;;;5017043;28;91897;-83
2022/08/12 07:07:57;;;;;;;14.50;4.22;;;25.40;43.00;;;;;;5016002;28;88609;-82
2022/08/12 07:10:23;;;;;;;8.25;3.72;;;25.40;43.10;;;;;;5019310;28;87404;-84
2022/08/12 07:12:53;;;;;;;9.88;3.78;;;25.30;43.00;;;;;;5018906;28;87460;-84
2022/08/12 07:15:21;;;;;;;9.63;4.40;;;25.40;43.50;;;;;;5019757;28;88562;-83
2022/08/12 07:17:46;;;;;;;10.38;3.80;;;25.40;43.60;;;;;;5019496;28;87857;-84
2022/08/12 07:20:12;;;;;;;9.85;3.70;;;25.40;43.70;;;;;;5020126;28;88115;-84
2022/08/12 07:22:38;;;;;;;10.52;3.80;;;25.40;43.80;;;;;;5020248;28;86990;-84
2022/08/12 07:27:52;;;;;;;8.15;3.03;;;25.40;44.00;;;;;;5003922;27;87490;-83
2022/08/12 07:30:18;;;;;;;8.25;3.83;;;25.30;44.10;;;;;;5021210;28;87234;-83
2022/08/12 07:32:46;;;;;;;12.18;4.03;;;25.30;44.20;;;;;;5018822;28;88088;-83
2022/08/12 07:35:11;;;;;;;8.30;3.33;;;25.30;44.40;;;;;;5017344;28;90542;-86
2022/08/12 07:37:41;;;;;;;11.85;3.90;;;25.30;44.40;;;;;;5019770;28;87752;-84
2022/08/12 07:40:10;;;;;;;6.75;3.60;;;25.30;44.40;;;;;;5019920;28;87542;-85
2022/08/12 07:42:36;;;;;;;8.25;3.92;;;25.30;44.60;;;;;;5017185;28;90498;-84
2022/08/12 07:45:03;;;;;;;10.20;4.00;;;25.40;44.70;;;;;;5018410;28;92767;-87
2022/08/12 07:47:29;;;;;;;7.25;3.63;;;25.30;45.30;;;;;;5018853;28;88932;-84
2022/08/12 07:49:57;;;;;;;7.80;3.70;;;25.40;45.00;;;;;;5018418;28;87044;-85
2022/08/12 07:52:24;;;;;;;10.27;3.92;;;25.30;45.00;;;;;;5019674;28;87520;-85
2022/08/12 07:54:49;;;;;;;6.63;3.47;;;25.40;45.40;;;;;;5019273;28;87230;-85
2022/08/12 07:57:18;;;;;;;7.07;3.72;;;25.40;45.50;;;;;;5019459;28;88386;-85
2022/08/12 07:59:43;;;;;;;7.03;3.92;;;25.40;45.80;;;;;;5018315;28;87268;-85
2022/08/12 08:02:09;;;;;;;10.27;3.85;;;25.40;45.70;;;;;;5019006;28;89792;-84
2022/08/12 08:07:19;;;;;;;7.38;3.60;;;25.40;45.80;;;;;;5020132;28;86992;-87
2022/08/12 08:09:45;;;;;;;10.45;4.00;;;25.50;46.30;;;;;;5019972;28;88460;-88
2022/08/12 08:14:57;;;;;;;8.38;3.83;;;25.50;45.60;;;;;;5019579;28;87239;-87
2022/08/12 08:17:24;;;;;;;7.88;3.97;;;25.50;46.30;;;;;;5019736;28;88244;-86
2022/08/12 08:19:54;;;;;;;8.30;3.80;;;25.50;46.70;;;;;;5023536;28;87029;-88
2022/08/12 08:22:20;;;;;;;7.90;4.00;;;25.50;46.90;;;;;;5023404;28;87176;-86
2022/08/12 08:24:50;;;;;;;8.63;3.80;;;25.60;47.30;;;;;;5023358;28;88277;-86
2022/08/12 08:27:15;;;;;;;8.48;3.60;;;25.60;47.20;;;;;;5024819;28;88064;-87
2022/08/12 08:29:44;;;;;;;6.55;3.88;;;25.60;47.10;;;;;;5023530;28;87879;-86
2022/08/12 08:32:10;;;;;;;7.63;3.30;;;25.60;47.00;;;;;;5021318;28;88810;-88
2022/08/12 08:34:36;;;;;;;5.07;3.72;;;25.60;47.30;;;;;;5020931;28;89641;-87
2022/08/12 08:37:01;;;;;;;8.35;3.40;;;25.60;47.30;;;;;;5022843;28;89140;-87
2022/08/12 08:39:27;;;;;;;4.90;3.25;;;25.60;47.30;;;;;;5022726;28;87263;-87
2022/08/12 08:44:38;;;;;;;10.50;3.53;;;25.60;47.30;;;;;;5022422;28;88128;-87
2022/08/12 08:47:08;;;;;;;6.15;3.38;;;25.60;47.50;;;;;;5024036;28;88171;-86
2022/08/12 08:49:35;;;;;;;8.07;3.28;;;25.60;47.60;;;;;;5038056;28;87383;-85
2022/08/12 08:52:02;;;;;;;5.97;3.13;;;25.70;47.60;;;;;;5023058;28;86572;-86
2022/08/12 08:54:32;;;;;;;5.13;3.42;;;25.70;47.50;;;;;;5021190;28;89751;-86
2022/08/12 08:57:01;;;;;;;9.20;3.50;;;25.70;47.80;;;;;;5021496;28;90239;-86
2022/08/12 08:59:28;;;;;;;5.45;3.10;;;25.70;47.70;;;;;;5020416;28;87984;-86
2022/08/12 09:01:54;;;;;;;5.38;3.55;;;25.70;47.80;;;;;;5022221;28;87621;-86
2022/08/12 09:04:19;;;;;;;8.32;3.53;;;25.70;47.90;;;;;;5021553;28;88674;-84
2022/08/12 09:06:46;;;;;;;9.23;3.10;;;25.70;48.20;;;;;;5022354;28;87330;-86
2022/08/12 09:09:13;;;;;;;7.18;3.22;;;25.80;48.40;;;;;;5022461;28;87278;-85
2022/08/12 09:14:23;;;;;;;8.65;3.50;;;25.80;48.10;;;;;;5019681;28;87073;-85
2022/08/12 09:16:52;;;;;;;5.03;3.53;;;25.80;47.90;;;;;;5021924;28;88334;-85
2022/08/12 09:19:17;;;;;;;5.17;3.53;;;25.80;48.10;;;;;;5020810;28;87169;-84
2022/08/12 09:21:47;;;;;;;10.15;3.70;;;25.80;48.00;;;;;;5020471;28;87456;-84
2022/08/12 09:24:17;;;;;;;4.45;3.22;;;25.70;48.50;;;;;;5018917;28;89873;-84
2022/08/12 09:26:45;;;;;;;8.13;3.33;;;25.80;48.40;;;;;;5021497;28;89734;-86
2022/08/12 09:29:11;;;;;;;7.22;3.75;;;25.70;48.50;;;;;;5019441;28;87417;-84
2022/08/12 09:31:37;;;;;;;8.18;3.83;;;25.70;48.70;;;;;;5020196;28;87405;-85
2022/08/12 09:34:03;;;;;;;6.07;3.42;;;25.70;48.60;;;;;;5021788;28;88894;-84
2022/08/12 09:36:30;;;;;;;12.57;3.83;;;25.70;48.60;;;;;;5020433;28;88280;-84
2022/08/12 09:38:56;;;;;;;9.23;3.53;;;25.70;48.90;;;;;;5021182;28;86929;-85
2022/08/12 09:41:22;;;;;;;8.75;4.10;;;25.70;48.70;;;;;;5021800;28;86622;-83
2022/08/12 09:46:32;;;;;;;10.00;3.20;;;25.80;48.90;;;;;;5021960;28;87605;-84
2022/08/12 09:48:58;;;;;;;11.70;4.32;;;25.80;49.00;;;;;;5020539;28;88290;-85
2022/08/12 09:51:25;;;;;;;4.18;3.35;;;25.80;48.80;;;;;;5019699;28;90630;-85
2022/08/12 09:53:51;;;;;;;11.40;4.15;;;25.80;49.10;;;;;;5020297;28;88597;-84
2022/08/12 09:56:18;;;;;;;7.85;3.80;;;25.80;49.10;;;;;;5020722;28;88433;-84
2022/08/12 09:58:49;;;;;;;6.82;3.38;;;25.80;49.20;;;;;;5022161;28;87291;-85
2022/08/12 10:01:18;;;;;;;7.25;3.70;;;25.80;49.40;;;;;;5020757;28;88027;-85
2022/08/12 10:03:44;;;;;;;6.30;3.85;;;25.70;49.70;;;;;;5020210;28;88278;-86
2022/08/12 10:06:10;;;;;;;7.70;3.85;;;25.80;49.70;;;;;;5021235;28;87340;-85
2022/08/12 10:08:37;;;;;;;6.82;3.95;;;25.70;49.70;;;;;;5022231;28;87620;-84
2022/08/12 10:13:51;;;;;;;7.82;3.97;;;25.80;49.80;;;;;;5020550;28;88138;-87
2022/08/12 10:16:30;;;;;;;7.25;3.88;;;25.80;49.80;;;;;;5018735;28;92075;-82
2022/08/12 10:19:04;;;;;;;8.15;3.60;;;25.90;50.10;;;;;;5020299;28;86955;-83
2022/08/12 10:21:35;;;;;;;7.30;4.07;;;25.90;49.80;;;;;;5020886;28;87456;-84
2022/08/12 10:24:22;;;;;;;8.90;4.47;;;25.90;49.80;;;;;;5020075;28;89498;-83
2022/08/12 10:29:38;;;;;;;9.98;4.20;;;25.80;49.60;;;;;;5020742;28;87317;-83
2022/08/12 10:32:05;;;;;;;10.07;3.78;;;25.80;49.80;;;;;;5021565;28;88082;-84
2022/08/12 10:34:31;;;;;;;11.40;4.00;;;25.80;49.80;;;;;;5020106;28;88589;-83
2022/08/12 10:36:59;;;;;;;9.55;3.88;;;25.80;49.70;;;;;;5020222;28;88245;-85
2022/08/12 10:39:32;;;;;;;8.30;3.65;;;25.80;49.90;;;;;;5019213;28;88629;-84
2022/08/12 10:44:59;;;;;;;8.50;3.70;;;25.80;49.60;;;;;;5019299;28;87809;-83
2022/08/12 10:47:27;;;;;;;6.93;4.18;;;25.80;49.80;;;;;;5020007;28;88042;-84
2022/08/12 10:49:53;;;;;;;7.15;3.53;;;25.80;49.50;;;;;;5018714;28;87289;-84
2022/08/12 10:52:23;;;;;;;8.48;3.85;;;25.80;49.60;;;;;;5020076;28;86931;-84
2022/08/12 10:54:49;;;;;;;8.10;3.72;;;25.80;49.60;;;;;;5020511;28;89533;-84
2022/08/12 10:57:16;;;;;;;7.32;3.78;;;25.80;49.60;;;;;;5020271;28;90214;-84
2022/08/12 10:59:42;;;;;;;6.95;3.60;;;25.80;49.40;;;;;;5020647;28;86862;-84
2022/08/12 11:02:12;;;;;;;5.32;3.30;;;25.80;49.30;;;;;;5020170;28;87127;-83
2022/08/12 11:04:39;;;;;;;6.82;3.70;;;25.80;49.40;;;;;;5018357;28;91530;-83
2022/08/12 11:07:06;;;;;;;7.68;3.70;;;25.80;49.40;;;;;;5018873;28;89330;-84
2022/08/12 11:09:33;;;;;;;8.15;3.50;;;25.80;49.50;;;;;;5019810;28;86823;-84
2022/08/12 11:12:05;;;;;;;6.32;3.20;;;25.80;49.20;;;;;;5020295;28;87423;-84
2022/08/12 11:14:35;;;;;;;9.38;3.72;;;25.80;49.20;;;;;;5019724;28;87730;-84
2022/08/12 11:17:07;;;;;;;6.25;3.50;;;25.90;49.40;;;;;;5019498;28;88361;-84
2022/08/12 11:19:34;;;;;;;6.15;3.67;;;25.90;49.20;;;;;;5016801;28;86993;-84
2022/08/12 11:22:00;;;;;;;5.50;3.30;;;25.80;49.10;;;;;;5018992;28;86921;-83
2022/08/12 11:24:26;;;;;;;5.88;3.45;;;25.90;49.10;;;;;;5019761;28;88182;-83
2022/08/12 11:26:54;;;;;;;9.23;3.63;;;25.80;48.90;;;;;;5019279;28;88349;-83
2022/08/12 11:29:22;;;;;;;6.40;3.30;;;25.90;48.90;;;;;;5020345;28;88405;-83
2022/08/12 11:31:48;;;;;;;3.78;2.80;;;25.90;48.90;;;;;;5020187;28;87561;-84
2022/08/12 11:34:18;;;;;;;4.05;3.38;;;25.90;48.90;;;;;;5019031;28;88013;-84
2022/08/12 11:36:59;;;;;;;5.82;3.13;;;25.80;48.80;;;;;;5019844;28;87366;-84
2022/08/12 11:39:26;;;;;;;6.43;3.20;;;25.90;48.90;;;;;;5020556;28;87167;-83
2022/08/12 11:41:51;;;;;;;6.13;3.20;;;25.90;48.80;;;;;;5019175;28;87364;-83
2022/08/12 11:44:17;;;;;;;4.65;3.05;;;25.90;49.40;;;;;;5019295;28;87375;-83
2022/08/12 11:46:43;;;;;;;7.32;2.97;;;25.90;48.80;;;;;;5019473;28;86681;-84
2022/08/12 11:49:09;;;;;;;6.30;3.72;;;25.90;48.90;;;;;;5018550;28;87282;-83
2022/08/12 11:51:36;;;;;;;5.10;2.90;;;25.90;48.80;;;;;;5017450;28;87843;-86
2022/08/12 11:54:03;;;;;;;7.75;2.90;;;25.90;48.70;;;;;;5019763;28;89468;-85
2022/08/12 11:56:28;;;;;;;4.55;2.85;;;25.90;48.50;;;;;;5022633;28;88715;-85
2022/08/12 11:58:55;;;;;;;5.03;3.08;;;26.10;48.50;;;;;;5023431;28;87367;-86
2022/08/12 12:01:21;;;;;;;4.97;3.03;;;26.30;48.30;;;;;;5023276;28;87411;-85
2022/08/12 12:03:46;;;;;;;6.05;3.00;;;26.40;48.00;;;;;;5022811;28;87639;-86
2022/08/12 12:06:14;;;;;;;3.67;3.00;;;26.50;47.60;;;;;;5022065;28;92400;-86
2022/08/12 12:08:40;;;;;;;5.65;2.80;;;26.60;47.30;;;;;;5038417;28;87068;-86
2022/08/12 12:11:05;;;;;;;4.10;3.00;;;26.60;47.40;;;;;;5038070;28;90515;-86
2022/08/12 12:13:31;;;;;;;5.47;2.78;;;26.70;47.60;;;;;;5021906;28;91963;-87
2022/08/12 12:15:57;;;;;;;4.93;3.15;;;26.70;47.30;;;;;;5021687;28;87360;-84
2022/08/12 12:18:28;;;;;;;4.75;2.67;;;26.70;47.50;;;;;;5022800;28;87811;-84
2022/08/12 12:20:59;;;;;;;8.20;3.03;;;26.80;47.60;;;;;;5021802;28;86979;-84
2022/08/12 12:23:25;;;;;;;4.90;2.90;;;26.60;47.60;;;;;;5022676;28;88207;-84
2022/08/12 12:25:51;;;;;;;6.70;3.15;;;26.50;48.40;;;;;;5022264;28;88372;-83
2022/08/12 12:28:17;;;;;;;10.00;2.88;;;26.50;48.30;;;;;;5022152;28;86946;-84
2022/08/12 12:30:42;;;;;;;6.53;3.03;;;26.40;48.50;;;;;;5022610;28;87021;-84
2022/08/12 12:33:10;;;;;;;4.63;3.00;;;26.30;48.60;;;;;;5022349;28;87544;-83
2022/08/12 12:35:36;;;;;;;5.82;2.60;;;26.30;49.20;;;;;;5022727;28;88365;-82
2022/08/12 12:38:04;;;;;;;4.07;2.75;;;26.30;49.00;;;;;;5019253;28;87434;-81
2022/08/12 12:40:31;;;;;;;4.28;2.95;;;26.30;49.90;;;;;;5020448;28;87623;-83
2022/08/12 12:42:57;;;;;;;6.85;3.13;;;26.30;50.00;;;;;;5020102;28;88549;-83
2022/08/12 12:45:24;;;;;;;5.32;3.00;;;26.30;50.30;;;;;;5019970;28;89370;-83
2022/08/12 12:47:57;;;;;;;4.30;3.17;;;26.30;51.00;;;;;;5021525;28;86870;-83
2022/08/12 12:50:24;;;;;;;5.55;3.00;;;26.30;51.10;;;;;;5021199;28;86908;-83
2022/08/12 12:52:50;;;;;;;9.15;4.00;;;26.30;50.80;;;;;;5021421;28;88186;-83
2022/08/12 12:55:16;;;;;;;7.05;3.25;;;26.30;51.10;;;;;;5022961;28;87349;-83
2022/08/12 12:57:42;;;;;;;6.90;3.22;;;26.30;51.90;;;;;;5022381;28;87523;-85
2022/08/12 13:00:15;;;;;;;7.95;3.25;;;26.30;51.40;;;;;;5022657;28;86147;-85
2022/08/12 13:02:54;;;;;;;7.40;3.17;;;26.30;51.90;;;;;;5020911;28;88492;-85
2022/08/12 13:05:24;;;;;;;7.55;3.47;;;26.30;51.70;;;;;;5022297;28;88541;-85
2022/08/12 13:07:54;;;;;;;5.85;3.53;;;26.30;51.90;;;;;;5021887;28;87815;-83
2022/08/12 13:10:20;;;;;;;6.35;3.53;;;26.30;51.60;;;;;;5020425;28;87588;-84
2022/08/12 13:12:46;;;;;;;6.30;3.30;;;26.30;51.70;;;;;;5020836;28;88355;-85
2022/08/12 13:15:16;;;;;;;6.20;3.30;;;26.30;51.70;;;;;;5020322;28;88007;-86
2022/08/12 13:17:48;;;;;;;6.28;3.08;;;26.30;51.90;;;;;;5020696;28;87399;-85
2022/08/12 13:20:15;;;;;;;7.82;3.28;;;26.30;51.90;;;;;;5020301;28;90522;-84
2022/08/12 13:22:40;;;;;;;7.03;3.00;;;26.30;51.70;;;;;;5020441;28;91396;-86
2022/08/12 13:25:06;;;;;;;6.18;3.60;;;26.30;51.70;;;;;;5022497;28;87294;-85
2022/08/12 13:27:35;;;;;;;9.07;3.55;;;26.50;51.80;;;;;;5020546;28;86833;-85
2022/08/12 13:30:02;;;;;;;7.00;3.10;;;26.60;51.30;;;;;;5021361;28;86900;-86
2022/08/12 13:32:28;;;;;;;7.95;3.35;;;26.70;50.90;;;;;;5021630;28;89379;-85
2022/08/12 13:34:55;;;;;;;3.67;2.55;;;26.80;50.80;;;;;;5020140;28;91927;-86
2022/08/12 13:37:24;;;;;;;10.07;4.13;;;26.80;50.70;;;;;;5022171;28;87053;-85
2022/08/12 13:39:51;;;;;;;8.40;3.85;;;26.80;50.40;;;;;;5021939;28;87536;-86
2022/08/12 13:42:18;;;;;;;9.77;3.85;;;26.80;50.20;;;;;;5021833;28;87763;-85
2022/08/12 13:44:46;;;;;;;13.18;4.70;;;26.80;50.30;;;;;;5020439;28;90796;-85
2022/08/12 13:47:12;;;;;;;9.82;4.32;;;26.90;50.70;;;;;;5020877;28;87128;-85
2022/08/12 13:49:37;;;;;;;8.98;4.60;;;26.90;50.70;;;;;;5022343;28;87951;-85
2022/08/12 13:52:03;;;;;;;9.48;4.43;;;26.90;50.70;;;;;;5021966;28;88415;-85
2022/08/12 13:54:29;;;;;;;7.90;4.10;;;26.90;50.60;;;;;;5021811;28;88098;-85
2022/08/12 13:56:55;;;;;;;11.10;4.97;;;27.00;50.60;;;;;;5020794;28;88530;-84
2022/08/12 13:59:21;;;;;;;9.15;3.83;;;27.00;50.50;;;;;;5021841;28;87414;-85
2022/08/12 14:01:50;;;;;;;9.55;3.92;;;27.00;50.50;;;;;;5021562;28;87720;-85
2022/08/12 14:04:16;;;;;;;7.47;4.20;;;27.00;50.40;;;;;;5035601;28;91526;-84
2022/08/12 14:06:41;;;;;;;7.85;3.83;;;27.10;50.50;;;;;;5019292;28;86906;-85
2022/08/12 14:09:07;;;;;;;6.30;4.28;;;27.10;50.30;;;;;;5020985;28;87795;-84
2022/08/12 14:11:33;;;;;;;9.00;4.10;;;27.10;50.20;;;;;;5021011;28;88656;-85
2022/08/12 14:13:59;;;;;;;6.70;3.60;;;27.10;50.20;;;;;;5021613;28;88286;-85
2022/08/12 14:16:26;;;;;;;8.10;4.13;;;27.10;50.20;;;;;;4957023;28;87563;-84
2022/08/12 14:18:52;;;;;;;11.00;4.57;;;27.20;50.00;;;;;;5020470;28;87227;-86
2022/08/12 14:21:19;;;;;;;7.38;3.70;;;27.20;50.00;;;;;;5020366;28;88436;-86
2022/08/12 14:23:51;;;;;;;8.02;3.55;;;27.20;50.20;;;;;;5020664;28;88140;-86
2022/08/12 14:26:20;;;;;;;9.75;3.92;;;27.10;50.30;;;;;;5021773;28;86936;-87
2022/08/12 14:28:46;;;;;;;9.60;3.72;;;27.20;51.20;;;;;;5020964;28;88056;-85
2022/08/12 14:31:14;;;;;;;8.63;4.18;;;27.20;50.50;;;;;;5020744;28;88575;-85
2022/08/12 14:33:46;;;;;;;6.93;3.92;;;27.20;50.50;;;;;;5020585;28;88063;-85
2022/08/12 14:36:20;;;;;;;8.85;4.05;;;27.20;50.60;;;;;;5020338;28;87507;-85